San Antonio, Valles Caldera, New Mexico Weather observations

Data are for 10 minute period ending at time listed.
 Day   Time   Solar   Ave.   Ave.  Ave.  Vector  Max.   Baro.   Total    
  of    of     Rad.   Air    Rel.  Wind   Wind   Wind  Press.  Precip.   
Year   Day            Temp.  Hum.  Speed  Dir.   Gust                    
2014   (MST)  Kw/m2    F      %     mph   deg.    mph    mb.     in.     
-------------------------------------------------------------------------
 273    8:20   0.43   45.7    67    0.6   230     2.4   396.5    0.00 
 273    8:30   0.46   46.4    66    1.0   225     3.0   396.5    0.00 
 273    8:40   0.49   47.6    63    1.9   223     4.2   396.5    0.00 
 273    8:50   0.51   49.6    53    4.7   290     9.0   396.5    0.00 
 273    9:00   0.54   53.8    41    4.6   317     8.4   396.5    0.00 
 273    9:10   0.57   54.8    39    6.1   311    10.8   396.5    0.00 
 273    9:20   0.60   55.3    38    5.9   317    12.5   396.9    0.00 
 273    9:30   0.62   55.7    38    6.3   297    13.1   396.9    0.00 
 273    9:40   0.65   55.9    39    6.7   299    11.9   396.9    0.00 
 273    9:50   0.67   56.4    39    6.5   312    13.1   396.9    0.00 
 273   10:00   0.69   56.0    38    6.6   330    13.1   397.2    0.00 
 273   10:10   0.71   55.2    38    7.4   315    14.3   396.9    0.00 
 273   10:20   0.73   54.4    39    8.2   316    17.3   396.9    0.00 
 273   10:30   0.74   54.8    40    7.1   312    14.3   397.2    0.00 
 273   10:40   0.76   55.0    39    5.6   350    12.5   396.9    0.00 
 273   10:50   0.77   55.1    39    4.7   329    10.2   396.9    0.00 
 273   11:00   0.78   56.2    38    7.1   285    12.5   396.9    0.00 
 273   11:10   0.79   56.4    38    5.6   292     9.0   397.2    0.00 
 273   11:20   0.80   56.6    38    7.3   264    14.9   397.2    0.00 
 273   11:30   0.80   56.8    39   10.7   248    18.5   397.2    0.00 
 273   11:40   0.81   57.2    37   11.8   269    17.9   397.2    0.00 
 273   11:50   0.81   56.9    38   11.7   268    18.5   397.2    0.00 
 273   12:00   0.81   57.2    39   11.8   252    17.3   397.2    0.00 
 273   12:10   0.82   56.8    37   14.8   261    21.5   397.2    0.00 
 273   12:20   0.83   56.9    36   14.2   264    19.7   397.2    0.00 
 273   12:30   0.82   56.9    36   13.9   262    22.1   397.2    0.00 
 273   12:40   0.82   57.3    35   14.1   271    21.5   397.2    0.00 
 273   12:50   0.80   57.3    35   13.7   276    21.5   397.2    0.00 
 273   13:00   0.80   57.4    36   13.8   263    23.9   397.2    0.00 
 273   13:10   0.74   57.7    37   12.1   264    17.9   397.6    0.00 
 273   13:20   0.73   57.2    37   10.7   283    17.3   397.2    0.00 
 273   13:30   0.48   56.9    38   10.1   284    17.3   396.9    0.00 
 273   13:40   0.54   56.4    38   12.6   272    18.5   396.9    0.00 
 273   13:50   0.77   57.6    36   12.9   262    20.3   397.2    0.00 
 273   14:00   0.70   57.9    35   10.9   269    17.3   397.2    0.00 
 273   14:10   0.65   58.4    34   12.3   273    19.7   397.2    0.00 
 273   14:20   0.64   58.2    34    9.0   290    15.5   397.2    0.00 
 273   14:30   0.63   59.4    33   11.8   282    17.9   397.2    0.00 
 273   14:40   0.60   59.3    32   11.2   283    18.5   397.2    0.00 
 273   14:50   0.57   59.0    33   10.6   271    17.3   397.2    0.00 
 273   15:00   0.55   59.3    32   11.1   298    17.3   397.2    0.00 
 273   15:10   0.52   59.3    32   11.4   285    17.3   397.2    0.00 
 273   15:20   0.49   59.3    32   11.2   275    17.9   397.2    0.00 
 273   15:30   0.46   58.4    33   12.1   276    19.1   397.2    0.00 
 273   15:40   0.43   58.3    33   10.9   271    19.7   396.9    0.00 
 273   15:50   0.40   57.6    34   12.9   265    19.1   396.9    0.00 
 273   16:00   0.36   57.5    34   10.9   262    16.1   396.9    0.00 
 273   16:10   0.33   57.6    34   11.6   272    17.3   396.9    0.00 
 273   16:20   0.29   57.5    34   10.7   270    14.9   396.9    0.00 
 273   16:30   0.26   57.6    34   11.0   274    17.3   396.9    0.00 
 273   16:40   0.23   56.5    36   11.8   271    17.3   396.5    0.00 
 273   16:50   0.20   56.6    36    9.6   277    14.9   396.5    0.00 
 273   17:00   0.16   55.5    38   11.3   269    16.1   396.5    0.00 
 273   17:10   0.13   54.8    38   10.6   271    16.1   396.5    0.00 
 273   17:20   0.09   54.1    40    8.9   269    13.1   396.2    0.00 
 273   17:30   0.05   53.2    41    8.0   279    13.7   396.2    0.00 
 273   17:40   0.02   52.5    42    7.2   286    11.9   396.2    0.00 
 273   17:50   0.01   49.9    47    6.4   298    10.8   396.2    0.00 
 273   18:00   0.00   48.5    50    4.1   315     8.4   396.2    0.00 
 273   18:10   0.00   47.4    52    3.0   360     4.2   395.9    0.00 
 273   18:20   0.00   46.4    55    3.3     9     4.2   395.9    0.00 
 273   18:30   0.00   45.5    57    2.7   350     4.2   395.9    0.00 
 273   18:40   0.00   45.0    58    2.8   341     4.8   395.9    0.00 
 273   18:50   0.00   44.6    59    2.0   314     3.6   395.9    0.00 
 273   19:00   0.00   42.4    64    1.2   267     3.0   395.9    0.00 
 273   19:10   0.00   40.5    68    0.4   330     1.8   395.9    0.00 
 273   19:20   0.00   40.1    70    1.0   331     3.0   395.9    0.00 
 273   19:30   0.00   39.7    70    2.4   307     3.6   395.9    0.00 
 273   19:40   0.00   39.4    71    1.9   331     4.2   395.9    0.00 
 273   19:50   0.00   39.3    71    2.4   330     4.8   395.9    0.00 
 273   20:00   0.00   39.3    71    3.4   325     6.6   395.9    0.00 
 273   20:10   0.00   39.1    71    3.0   324     5.4   395.9    0.00 
 273   20:20   0.00   39.0    71    3.4   319     7.8   395.9    0.00 
 273   20:30   0.00   39.4    70    2.7   322     7.8   395.9    0.00 
 273   20:40   0.00   39.2    70    1.0   342     3.6   395.9    0.00 
 273   20:50   0.00   39.0    70    1.4   356     3.0   395.9    0.00 
 273   21:00   0.00   38.5    72    0.6   355     2.4   395.9    0.00 
 273   21:10   0.00   37.5    74    2.1    17     4.2   395.9    0.00 
 273   21:20   0.00   37.0    76    2.2     5     3.6   395.9    0.00 
 273   21:30   0.00   35.9    78    1.9   100     3.0   395.9    0.00 
 273   21:40   0.00   35.4    80    2.2    13     4.8   396.2    0.00 
 273   21:50   0.00   35.4    79    0.7   112     2.4   396.2    0.00 
 273   22:00   0.00   34.6    81    0.3    28     1.8   396.2    0.00 
 273   22:10   0.00   34.5    81    0.6    28     2.4   396.2    0.00 
 273   22:20   0.00   34.4    81    0.8     9     2.4   396.2    0.00 
 273   22:30   0.00   34.0    82    0.5    38     1.8   396.2    0.00 
 273   22:40   0.00   33.5    83    0.6    61     2.4   396.5    0.00 
 273   22:50   0.00   32.9    84    0.0    22     1.2   396.5    0.00 
 273   23:00   0.00   32.4    85    0.2   154     1.8   396.5    0.00 
 273   23:10   0.00   31.1    87    0.2   109     1.8   396.9    0.00 
 273   23:20   0.00   30.7    89    0.9    38     3.0   396.9    0.00 
 273   23:30   0.00   30.7    89    0.2    10     1.8   396.9    0.00 
 273   23:40   0.00   30.4    89    1.5   118     2.4   396.9    0.00 
 273   23:50   0.00   30.1    90    0.2    47     1.8   397.2    0.00 
 274    0:00   0.00   30.2    90    1.2    15     3.6   397.2    0.00 
 274    0:10   0.00   30.0    90    0.6   319     3.0   397.2    0.00 
 274    0:20   0.00   29.8    90    0.1   151     1.2   397.2    0.00 
 274    0:30   0.00   28.8    90    0.5    34     3.6   397.2    0.00 
 274    0:40   0.00   29.1    92    0.7    28     3.0   397.2    0.00 
 274    0:50   0.00   29.3    92    0.2   348     1.8   397.2    0.00 
 274    1:00   0.00   28.8    92    0.4   130     2.4   397.2    0.00 
 274    1:10   0.00   27.8    92    0.1   140     1.2   397.2    0.00 
 274    1:20   0.00   27.6    93    0.3    14     1.8   397.2    0.00 
 274    1:30   0.00   27.3    93    0.0    39     1.2   397.6    0.00 
 274    1:40   0.00   27.1    94    0.0     0     0.0   397.6    0.00 
 274    1:50   0.00   27.2    94    0.1    58     1.8   397.6    0.00 
 274    2:00   0.00   27.5    94    0.4    28     2.4   397.6    0.00 
 274    2:10   0.00   27.8    94    1.1    22     3.0   397.6    0.00 
 274    2:20   0.00   27.3    94    0.0   336     1.2   397.6    0.00 
 274    2:30   0.00   27.0    94    0.0     0     0.0   397.6    0.00 
 274    2:40   0.00   26.5    94    0.0     0     0.0   397.6    0.00 
 274    2:50   0.00   26.6    94    0.1   103     1.2   397.6    0.00 
 274    3:00   0.00   26.9    95    0.0    78     1.2   397.6    0.00 
 274    3:10   0.00   26.3    94    1.4   291     3.0   397.6    0.00 
 274    3:20   0.00   25.5    94    0.9   104     2.4   397.6    0.00 
 274    3:30   0.00   26.2    95    0.5    17     1.8   397.6    0.00 
 274    3:40   0.00   26.5    95    0.2    57     1.8   397.6    0.00 
 274    3:50   0.00   25.4    94    0.1   181     1.2   397.6    0.00 
 274    4:00   0.00   25.9    95    0.7    39     2.4   397.6    0.00 
 274    4:10   0.00   24.3    94    0.4   125     1.8   397.6    0.00 
 274    4:20   0.00   24.5    95    0.7    36     1.8   397.6    0.00 
 274    4:30   0.00   25.0    95    0.3   133     1.8   397.6    0.00 
 274    4:40   0.00   25.0    95    0.0    38     1.2   397.6    0.00 
 274    4:50   0.00   25.2    95    0.4   287     1.8   397.6    0.00 
 274    5:00   0.00   24.4    94    0.9   136     1.8   397.6    0.00 
 274    5:10   0.00   23.5    94    0.0   118     1.2   397.6    0.00 
 274    5:20   0.00   23.6    94    0.0     0     0.0   397.6    0.00 
 274    5:30   0.00   23.9    95    0.0   294     1.2   397.6    0.00 
 274    5:40   0.00   23.8    95    0.0    85     1.2   397.6    0.00 
 274    5:50   0.00   24.3    95    0.1    28     1.8   397.6    0.00 
 274    6:00   0.00   24.4    95    0.0     0     0.0   397.6    0.00 
 274    6:10   0.01   23.4    94    0.8   111     1.8   397.6    0.00 
 274    6:20   0.01   23.8    95    0.1   117     1.2   397.6    0.00 
 274    6:30   0.01   24.1    95    0.0     0     0.0   397.6    0.00 
 274    6:40   0.01   24.7    95    0.0    43     1.2   397.6    0.00 
 274    6:50   0.01   24.6    94    0.0   273     1.2   397.6    0.00 
 274    7:00   0.06   25.0    94    0.0     0     0.0   397.6    0.00 
 274    7:10   0.15   30.4    92    0.0   106     1.2   397.6    0.00 
 274    7:20   0.19   35.5    79    0.0   185     1.2   396.5    0.00 
 274    7:30   0.25   37.8    71    0.0   124     1.2   395.9    0.00 
 274    7:40   0.28   38.6    70    0.0   120     1.2   395.9    0.00 
 274    7:50   0.33   40.9    68    0.3   117     1.8   395.9    0.00 
 274    8:00   0.36   42.7    68    0.3   274     1.8   396.2    0.00 
 274    8:10   0.39   42.8    68    1.3   266     2.4   396.2    0.00 

Return to San Antonio, Valles Caldera graphs page.


Western Regional Climate Center,wrcc@dri.edu